Time;durP1;ratioP1;P1;durP2;ratioP2;P2;SDS_P1;SDS_P2;PMS_P1;PMS_P2;Temp;Humidity;BMP_temperature;BMP_pressure;BME280_temperature;BME280_humidity;BME280_pressure;Samples;Min_cycle;Max_cycle;Signal;HPM_P1;HPM_P2
2022/05/16 00:01:47;;;;;;;1.17;1.08;;;18.80;41.10;;;;;;6251315;22;20179;-87
2022/05/16 00:04:13;;;;;;;1.17;1.08;;;18.90;41.10;;;;;;6201431;22;20196;-87
2022/05/16 00:06:40;;;;;;;1.20;1.10;;;18.80;41.10;;;;;;6200726;22;20148;-87
2022/05/16 00:09:05;;;;;;;1.30;1.20;;;18.90;41.10;;;;;;6200989;22;20144;-87
2022/05/16 00:11:31;;;;;;;1.27;1.17;;;18.80;41.10;;;;;;6200648;22;20619;-87
2022/05/16 00:13:57;;;;;;;1.30;1.13;;;18.80;41.10;;;;;;6200552;22;20145;-87
2022/05/16 00:16:24;;;;;;;1.40;1.30;;;18.80;41.10;;;;;;6200327;22;20145;-88
2022/05/16 00:18:52;;;;;;;1.33;1.20;;;18.80;41.10;;;;;;6225978;22;20151;-88
2022/05/16 00:21:19;;;;;;;0.98;0.98;;;18.80;41.20;;;;;;6226430;22;20179;-88
2022/05/16 00:23:48;;;;;;;1.20;1.10;;;18.80;41.20;;;;;;6225857;22;20148;-88
2022/05/16 00:26:16;;;;;;;1.00;1.00;;;18.80;41.20;;;;;;6201533;22;20539;-88
2022/05/16 00:28:45;;;;;;;1.38;1.27;;;18.80;41.20;;;;;;6225878;22;20125;-88
2022/05/16 00:31:11;;;;;;;1.10;1.02;;;18.80;41.30;;;;;;6226457;22;20184;-87
2022/05/16 00:33:37;;;;;;;1.35;1.20;;;18.80;41.20;;;;;;6201576;22;20155;-88
2022/05/16 00:36:06;;;;;;;1.10;1.00;;;18.80;41.20;;;;;;6225758;22;20503;-88
2022/05/16 00:38:33;;;;;;;1.30;1.20;;;18.80;41.20;;;;;;6175322;22;20150;-88
2022/05/16 00:41:06;;;;;;;0.90;0.90;;;18.80;41.30;;;;;;6200219;22;20227;-88
2022/05/16 00:43:53;;;;;;;1.08;1.08;;;18.80;41.30;;;;;;6150622;22;20153;-87
2022/05/16 00:46:23;;;;;;;1.30;1.20;;;18.80;41.30;;;;;;6151858;22;20515;-88
2022/05/16 00:48:54;;;;;;;1.10;1.00;;;18.80;41.30;;;;;;6175578;22;20176;-88
2022/05/16 00:51:28;;;;;;;1.27;1.17;;;18.80;41.30;;;;;;6150742;22;20230;-88
2022/05/16 00:53:59;;;;;;;1.58;1.35;;;18.80;41.40;;;;;;6176236;22;20206;-88
2022/05/16 00:56:25;;;;;;;0.98;0.90;;;18.80;41.30;;;;;;6250636;22;20125;-88
2022/05/16 00:58:53;;;;;;;1.23;1.00;;;18.80;41.30;;;;;;6200840;22;20152;-88
2022/05/16 01:06:41;;;;;;;1.08;1.02;;;18.80;41.40;;;;;;6223885;23;20160;-88
2022/05/16 01:09:15;;;;;;;1.13;1.00;;;18.80;41.40;;;;;;6221044;23;20142;-87
2022/05/16 01:11:44;;;;;;;1.50;1.30;;;18.80;41.40;;;;;;6169699;23;20250;-88
2022/05/16 01:14:46;;;;;;;1.23;1.13;;;18.80;41.50;;;;;;6195161;23;20585;-88
2022/05/16 01:17:12;;;;;;;1.20;1.10;;;18.80;41.50;;;;;;6245854;23;20184;-88
2022/05/16 01:19:37;;;;;;;1.40;1.25;;;18.70;41.50;;;;;;6196224;23;20210;-88
2022/05/16 01:22:16;;;;;;;1.25;1.15;;;18.70;41.50;;;;;;6220480;23;20137;-88
2022/05/16 01:24:43;;;;;;;1.30;1.20;;;18.70;41.50;;;;;;6196201;23;20141;-88
2022/05/16 01:27:08;;;;;;;1.20;1.05;;;18.80;41.60;;;;;;6220970;23;20608;-88
2022/05/16 01:29:36;;;;;;;1.50;1.40;;;18.70;41.60;;;;;;6195207;23;20156;-88
2022/05/16 01:32:04;;;;;;;1.00;0.98;;;18.70;41.60;;;;;;6220687;23;20193;-88
2022/05/16 01:34:34;;;;;;;2.13;1.20;;;18.70;41.60;;;;;;6220491;23;20133;-88
2022/05/16 01:37:00;;;;;;;1.30;1.20;;;18.70;41.60;;;;;;6221183;23;20161;-87
2022/05/16 01:39:27;;;;;;;1.27;1.17;;;18.70;41.60;;;;;;6221318;23;20142;-87
2022/05/16 01:41:53;;;;;;;1.35;1.25;;;18.70;41.60;;;;;;6195913;23;20173;-88
2022/05/16 01:44:18;;;;;;;1.00;0.98;;;18.80;41.70;;;;;;6196117;23;20438;-88
2022/05/16 01:46:52;;;;;;;1.15;1.05;;;18.70;41.60;;;;;;6221619;23;20534;-88
2022/05/16 01:49:29;;;;;;;1.50;1.10;;;18.70;41.60;;;;;;6170042;23;20180;-87
2022/05/16 01:51:57;;;;;;;1.20;1.10;;;18.80;41.70;;;;;;6195071;23;20202;-88
2022/05/16 01:54:23;;;;;;;0.80;0.80;;;18.70;42.30;;;;;;6145334;23;20154;-88
2022/05/16 01:56:51;;;;;;;1.13;1.00;;;18.70;41.70;;;;;;6196325;23;20159;-88
2022/05/16 01:59:19;;;;;;;1.55;1.30;;;18.70;41.70;;;;;;6170297;23;20153;-88
2022/05/16 02:01:50;;;;;;;1.15;1.08;;;18.70;41.60;;;;;;6194418;23;20153;-88
2022/05/16 02:04:16;;;;;;;1.10;1.10;;;18.70;41.70;;;;;;6194193;23;20295;-88
2022/05/16 02:06:43;;;;;;;1.20;1.10;;;18.70;41.70;;;;;;6196165;23;20621;-88
2022/05/16 02:09:10;;;;;;;1.20;1.10;;;18.70;41.70;;;;;;6195157;23;20180;-88
2022/05/16 02:11:35;;;;;;;1.30;1.20;;;18.70;41.70;;;;;;6196239;23;20173;-87
2022/05/16 02:14:01;;;;;;;1.00;1.00;;;18.60;42.40;;;;;;6195660;23;20145;-87
2022/05/16 02:16:29;;;;;;;1.17;1.08;;;18.70;41.70;;;;;;6222992;23;20126;-88
2022/05/16 02:18:55;;;;;;;1.33;1.23;;;18.70;41.80;;;;;;6247858;23;20233;-88
2022/05/16 02:26:56;;;;;;;1.13;1.02;;;18.70;41.80;;;;;;6247608;23;20557;-87
2022/05/16 02:29:22;;;;;;;1.25;1.15;;;18.70;41.80;;;;;;6247460;23;20616;-88
2022/05/16 02:31:56;;;;;;;1.20;1.10;;;18.70;41.80;;;;;;6197818;23;20185;-88
2022/05/16 02:34:27;;;;;;;1.25;1.15;;;18.70;41.80;;;;;;6196217;23;20168;-88
2022/05/16 02:36:57;;;;;;;1.70;1.30;;;18.70;41.90;;;;;;6147089;23;20158;-87
2022/05/16 02:39:31;;;;;;;1.08;1.00;;;18.60;41.80;;;;;;6196890;23;20172;-88
2022/05/16 02:42:00;;;;;;;1.60;1.17;;;18.60;41.90;;;;;;6171844;23;20148;-87
2022/05/16 02:44:26;;;;;;;1.27;1.17;;;18.70;41.90;;;;;;6171111;23;20218;-88
2022/05/16 02:46:53;;;;;;;1.20;1.10;;;18.60;41.90;;;;;;6222593;23;20133;-88
2022/05/16 02:49:22;;;;;;;1.15;1.00;;;18.60;41.90;;;;;;6196715;23;20149;-88
2022/05/16 02:51:50;;;;;;;1.20;1.10;;;18.60;41.90;;;;;;6221793;23;20235;-88
2022/05/16 02:54:18;;;;;;;1.00;0.90;;;18.60;41.90;;;;;;6222202;23;20183;-88
2022/05/16 02:56:45;;;;;;;1.20;1.10;;;18.60;41.90;;;;;;6222492;23;20146;-88
2022/05/16 02:59:12;;;;;;;1.13;1.02;;;18.60;42.60;;;;;;6196749;23;20233;-88
2022/05/16 03:01:38;;;;;;;1.60;1.20;;;18.60;41.90;;;;;;6247118;23;20522;-87
2022/05/16 03:04:08;;;;;;;1.20;1.10;;;18.60;41.90;;;;;;6197917;23;20270;-88
2022/05/16 03:06:33;;;;;;;1.10;1.00;;;18.60;41.90;;;;;;6171520;23;20597;-88
2022/05/16 03:09:01;;;;;;;1.35;1.25;;;18.60;41.90;;;;;;6221341;23;20153;-88
2022/05/16 03:11:27;;;;;;;1.10;1.00;;;18.60;41.90;;;;;;6249002;23;20169;-87
2022/05/16 03:13:54;;;;;;;1.10;1.00;;;18.60;42.00;;;;;;6227309;23;20144;-87
2022/05/16 03:16:19;;;;;;;0.98;0.90;;;18.60;41.90;;;;;;6202431;23;20192;-88
2022/05/16 03:18:46;;;;;;;1.02;0.93;;;18.60;41.90;;;;;;6226060;23;20573;-87
2022/05/16 03:21:12;;;;;;;1.08;0.98;;;18.60;41.90;;;;;;6221541;23;20209;-87
2022/05/16 03:23:38;;;;;;;1.45;1.10;;;18.60;41.90;;;;;;6221952;23;20550;-87
2022/05/16 03:26:04;;;;;;;1.08;1.08;;;18.70;42.00;;;;;;6221537;23;20130;-87
2022/05/16 03:28:31;;;;;;;1.15;1.05;;;18.60;42.00;;;;;;6221605;23;20179;-87
2022/05/16 03:30:57;;;;;;;1.10;0.90;;;18.70;42.00;;;;;;6221839;23;20200;-87
2022/05/16 03:33:30;;;;;;;1.23;1.13;;;18.70;42.00;;;;;;6222265;23;20438;-87
2022/05/16 03:35:59;;;;;;;1.10;1.00;;;18.60;41.90;;;;;;6247393;23;20153;-87
2022/05/16 03:41:11;;;;;;;0.95;0.95;;;18.60;42.10;;;;;;6225492;23;20192;-87
2022/05/16 03:43:41;;;;;;;1.15;1.05;;;18.60;42.60;;;;;;6197133;23;20454;-87
2022/05/16 03:46:09;;;;;;;1.20;1.10;;;18.60;42.00;;;;;;6195786;23;20159;-87
2022/05/16 03:48:40;;;;;;;1.35;0.90;;;18.70;42.00;;;;;;6195550;23;20491;-87
2022/05/16 03:51:10;;;;;;;1.10;0.95;;;18.60;41.90;;;;;;6195527;23;20644;-88
2022/05/16 03:53:46;;;;;;;0.90;0.90;;;18.70;41.90;;;;;;6170928;23;20171;-87
2022/05/16 03:56:14;;;;;;;0.98;0.98;;;18.70;41.80;;;;;;6198067;23;20154;-87
2022/05/16 03:58:40;;;;;;;0.95;0.95;;;18.70;41.80;;;;;;6221635;23;20133;-88
2022/05/16 04:01:12;;;;;;;1.20;1.10;;;18.70;41.80;;;;;;6221035;23;20208;-88
2022/05/16 04:03:38;;;;;;;1.00;1.00;;;18.80;41.80;;;;;;6246231;23;20197;-88
2022/05/16 04:06:04;;;;;;;1.30;1.00;;;18.80;41.70;;;;;;6195772;23;20582;-88
2022/05/16 04:08:32;;;;;;;1.02;0.93;;;18.80;41.70;;;;;;6196412;23;20145;-88
2022/05/16 04:10:58;;;;;;;0.80;0.80;;;18.80;41.70;;;;;;6221168;23;20173;-88
2022/05/16 04:13:24;;;;;;;1.10;0.80;;;18.80;41.70;;;;;;6197323;23;20133;-87
2022/05/16 04:15:50;;;;;;;1.00;1.00;;;18.80;41.60;;;;;;6221801;23;20472;-88
2022/05/16 04:18:16;;;;;;;1.00;1.00;;;18.90;41.70;;;;;;6246351;23;20186;-88
2022/05/16 04:20:42;;;;;;;0.70;0.70;;;18.90;41.60;;;;;;6246340;23;20134;-87
2022/05/16 04:23:09;;;;;;;2.25;0.98;;;18.80;41.60;;;;;;6221390;23;20140;-88
2022/05/16 04:25:35;;;;;;;0.75;0.75;;;18.90;41.60;;;;;;6195825;23;20138;-88
2022/05/16 04:28:01;;;;;;;0.93;0.93;;;18.80;41.60;;;;;;6195524;23;20557;-87
2022/05/16 04:30:28;;;;;;;1.15;1.05;;;18.90;41.60;;;;;;6220749;23;20161;-88
2022/05/16 04:32:55;;;;;;;1.02;0.80;;;18.80;41.50;;;;;;6220607;23;20148;-88
2022/05/16 04:35:21;;;;;;;1.13;1.08;;;18.80;41.50;;;;;;6195208;23;20142;-88
2022/05/16 04:37:51;;;;;;;0.82;0.82;;;18.90;41.60;;;;;;6220287;23;20126;-88
2022/05/16 04:40:17;;;;;;;1.00;0.90;;;18.80;41.50;;;;;;6145604;23;20156;-88
2022/05/16 04:42:44;;;;;;;1.10;1.00;;;18.90;41.50;;;;;;6245792;23;20152;-87
2022/05/16 04:45:18;;;;;;;1.35;0.90;;;18.90;41.40;;;;;;6195390;23;20492;-88
2022/05/16 04:47:44;;;;;;;2.92;0.90;;;18.90;41.40;;;;;;6197014;23;20441;-88
2022/05/16 04:50:16;;;;;;;0.85;0.82;;;18.90;41.10;;;;;;6195417;23;20519;-88
2022/05/16 04:52:42;;;;;;;0.88;0.88;;;19.00;41.20;;;;;;6220551;23;20145;-88
2022/05/16 04:55:08;;;;;;;1.05;0.95;;;19.00;41.00;;;;;;6220629;23;20203;-88
2022/05/16 04:57:34;;;;;;;1.10;1.00;;;19.00;41.00;;;;;;6245163;23;20134;-88
2022/05/16 05:00:03;;;;;;;1.60;1.10;;;19.00;41.00;;;;;;6195637;23;20430;-87
2022/05/16 05:02:29;;;;;;;0.70;0.70;;;19.00;41.10;;;;;;6194236;23;20157;-87
2022/05/16 05:04:55;;;;;;;1.05;0.95;;;19.00;41.00;;;;;;6245066;23;20259;-88
2022/05/16 05:07:23;;;;;;;1.13;1.00;;;19.00;41.00;;;;;;6220345;23;20160;-88
2022/05/16 05:15:14;;;;;;;0.98;0.90;;;18.90;41.00;;;;;;6223181;23;20129;-87
2022/05/16 05:17:41;;;;;;;1.08;0.98;;;19.00;41.00;;;;;;6195252;23;20184;-87
2022/05/16 05:20:13;;;;;;;0.80;0.80;;;18.90;41.00;;;;;;6220926;23;20453;-87
2022/05/16 05:22:45;;;;;;;1.08;0.98;;;19.00;41.00;;;;;;6196871;23;20584;-87
2022/05/16 05:25:12;;;;;;;0.88;0.88;;;19.00;41.10;;;;;;6220603;23;20279;-87
2022/05/16 05:27:39;;;;;;;0.75;0.75;;;19.00;41.10;;;;;;6222467;23;20137;-87
2022/05/16 05:30:07;;;;;;;1.15;1.05;;;18.90;41.10;;;;;;6197708;23;20150;-88
2022/05/16 05:32:34;;;;;;;0.80;0.80;;;19.00;41.00;;;;;;6203349;23;20142;-88
2022/05/16 05:35:04;;;;;;;0.75;0.70;;;19.00;40.90;;;;;;6224726;23;20211;-88
2022/05/16 05:37:31;;;;;;;0.82;0.82;;;19.00;41.00;;;;;;6196637;23;20148;-86
2022/05/16 05:40:01;;;;;;;0.95;0.85;;;19.00;40.90;;;;;;6219655;23;20565;-86
2022/05/16 05:42:27;;;;;;;0.90;0.90;;;19.00;41.60;;;;;;6221058;23;20145;-86
2022/05/16 05:44:54;;;;;;;0.77;0.77;;;19.00;40.80;;;;;;6196243;23;20141;-87
2022/05/16 05:47:21;;;;;;;1.38;1.13;;;19.10;40.70;;;;;;6221431;23;20149;-87
2022/05/16 05:49:48;;;;;;;1.05;0.95;;;19.10;40.70;;;;;;6246676;23;20138;-87
2022/05/16 05:52:15;;;;;;;0.93;0.88;;;19.00;40.90;;;;;;6247528;23;20161;-87
2022/05/16 05:54:42;;;;;;;1.05;0.80;;;19.00;40.90;;;;;;6198774;23;20146;-87
2022/05/16 05:57:09;;;;;;;0.70;0.70;;;19.00;40.80;;;;;;6223708;23;20169;-88
2022/05/16 05:59:39;;;;;;;1.10;1.00;;;19.00;40.90;;;;;;6222038;23;20218;-88
2022/05/16 06:02:06;;;;;;;1.02;0.90;;;19.00;40.70;;;;;;6197378;23;20593;-88
2022/05/16 06:04:35;;;;;;;0.80;0.80;;;19.00;40.80;;;;;;6198660;23;20193;-87
2022/05/16 06:07:02;;;;;;;0.85;0.85;;;19.10;40.70;;;;;;6251071;23;20130;-87
2022/05/16 06:09:32;;;;;;;0.80;0.80;;;19.00;40.70;;;;;;6252497;23;20145;-86
2022/05/16 06:11:59;;;;;;;1.05;0.88;;;19.10;40.60;;;;;;6230564;23;20243;-87
2022/05/16 06:14:26;;;;;;;1.27;0.90;;;19.10;40.70;;;;;;6204509;23;20137;-88
2022/05/16 06:16:53;;;;;;;1.50;0.70;;;19.10;40.40;;;;;;6206961;23;20148;-89
2022/05/16 06:19:19;;;;;;;0.80;0.80;;;19.10;40.50;;;;;;6206497;23;20188;-90
2022/05/16 06:21:50;;;;;;;1.02;0.90;;;19.10;40.30;;;;;;6205731;23;20149;-90
2022/05/16 06:26:55;;;;;;;1.10;0.90;;;19.20;40.30;;;;;;6226981;23;20259;-87
2022/05/16 06:29:21;;;;;;;0.80;0.80;;;19.10;40.30;;;;;;6248458;23;20130;-88
2022/05/16 06:31:46;;;;;;;0.82;0.82;;;19.20;40.40;;;;;;6223673;23;20168;-90
2022/05/16 06:34:14;;;;;;;0.90;0.80;;;19.10;40.50;;;;;;6224670;23;20138;-90
2022/05/16 06:36:57;;;;;;;1.33;0.90;;;19.10;40.60;;;;;;6171826;23;20146;-88
2022/05/16 06:39:25;;;;;;;1.08;0.90;;;19.10;40.60;;;;;;6135804;23;20185;-90
2022/05/16 06:41:51;;;;;;;0.93;0.80;;;19.10;40.40;;;;;;6160864;23;20139;-84
2022/05/16 06:44:41;;;;;;;1.15;0.98;;;19.10;40.70;;;;;;6185364;23;20151;-88
2022/05/16 06:47:11;;;;;;;1.13;0.93;;;19.10;41.00;;;;;;6119375;23;20158;-89
2022/05/16 06:49:39;;;;;;;1.92;0.88;;;19.10;41.00;;;;;;6136061;23;20154;-89
2022/05/16 06:52:13;;;;;;;1.15;0.80;;;19.10;40.90;;;;;;6162034;23;20206;-88
2022/05/16 06:54:49;;;;;;;1.17;0.88;;;19.10;40.90;;;;;;6164703;23;20154;-88
2022/05/16 06:57:19;;;;;;;0.80;0.80;;;19.10;40.90;;;;;;6106394;23;20166;-87
2022/05/16 06:59:55;;;;;;;0.95;0.82;;;19.10;40.70;;;;;;6107835;23;20152;-86
2022/05/16 07:02:26;;;;;;;1.08;0.98;;;19.10;40.70;;;;;;6089299;23;20344;-85
2022/05/16 07:04:53;;;;;;;1.33;0.68;;;19.10;40.70;;;;;;6109395;23;20340;-85
2022/05/16 07:07:23;;;;;;;2.38;0.80;;;19.20;40.70;;;;;;6060853;23;20156;-87
2022/05/16 07:09:49;;;;;;;1.88;1.00;;;19.20;40.70;;;;;;6123308;23;20594;-85
2022/05/16 07:12:15;;;;;;;3.05;0.80;;;19.20;41.00;;;;;;6166056;23;20185;-85
2022/05/16 07:14:41;;;;;;;1.27;0.88;;;19.20;41.00;;;;;;6164006;23;20135;-84
2022/05/16 07:17:20;;;;;;;;;;;;;;;;;;;;;
2022/05/16 07:19:47;;;;;;;1.35;0.70;;;19.10;40.70;;;;;;6128084;23;20187;-84
2022/05/16 07:22:14;;;;;;;2.85;0.90;;;19.20;40.60;;;;;;6108932;23;20156;-85
2022/05/16 07:24:47;;;;;;;0.70;0.70;;;19.20;40.30;;;;;;6133865;23;20148;-85
2022/05/16 07:29:55;;;;;;;1.45;0.70;;;19.20;40.30;;;;;;6170609;23;20210;-85
2022/05/16 07:32:21;;;;;;;0.90;0.70;;;19.20;40.70;;;;;;6117224;23;20205;-86
2022/05/16 07:34:48;;;;;;;2.58;0.93;;;19.20;40.40;;;;;;6166512;23;20131;-83
2022/05/16 07:37:15;;;;;;;2.85;0.65;;;19.20;40.40;;;;;;6142738;23;20211;-84
2022/05/16 07:39:41;;;;;;;7.18;0.90;;;19.20;40.50;;;;;;6143215;23;20169;-84
2022/05/16 07:42:09;;;;;;;2.22;0.98;;;19.20;40.50;;;;;;6142383;23;20162;-85
2022/05/16 07:44:38;;;;;;;4.22;1.05;;;19.20;40.70;;;;;;6142350;23;20150;-85
2022/05/16 07:47:04;;;;;;;5.65;1.30;;;19.20;40.70;;;;;;6164632;23;20590;-83
2022/05/16 07:49:30;;;;;;;6.50;1.27;;;19.20;40.70;;;;;;6189746;23;20142;-85
2022/05/16 07:51:56;;;;;;;5.13;1.10;;;19.10;40.70;;;;;;6138972;23;20194;-86
2022/05/16 07:54:24;;;;;;;6.97;1.25;;;19.20;40.70;;;;;;6139915;23;20143;-85
2022/05/16 07:56:52;;;;;;;6.05;1.00;;;19.10;40.90;;;;;;6163408;23;20149;-84
2022/05/16 07:59:20;;;;;;;4.97;1.00;;;19.10;41.00;;;;;;6170066;23;20138;-85
2022/05/16 08:01:45;;;;;;;3.78;1.20;;;19.20;40.80;;;;;;6194459;23;20134;-86
2022/05/16 08:04:12;;;;;;;4.72;1.30;;;19.20;40.70;;;;;;6249663;23;20227;-85
2022/05/16 08:06:38;;;;;;;2.65;1.02;;;19.10;41.00;;;;;;6199726;23;20146;-86
2022/05/16 08:11:46;;;;;;;3.08;0.90;;;19.20;41.00;;;;;;6226606;23;20169;-86
2022/05/16 08:14:14;;;;;;;3.35;1.00;;;19.10;41.30;;;;;;6198292;23;20596;-85
2022/05/16 08:16:40;;;;;;;2.45;1.00;;;19.10;41.00;;;;;;6224008;23;20152;-84
2022/05/16 08:19:05;;;;;;;1.85;0.80;;;19.20;41.60;;;;;;6197759;23;20216;-85
2022/05/16 08:21:34;;;;;;;2.65;0.80;;;19.20;40.90;;;;;;6247950;23;20137;-84
2022/05/16 08:24:01;;;;;;;3.50;0.90;;;19.20;40.80;;;;;;6248539;23;20149;-84
2022/05/16 08:26:27;;;;;;;1.95;0.85;;;19.20;40.70;;;;;;6249206;23;20141;-86
2022/05/16 08:28:52;;;;;;;2.80;0.80;;;19.30;41.50;;;;;;6199308;23;20149;-83
2022/05/16 08:31:18;;;;;;;2.75;1.10;;;19.30;41.00;;;;;;6200669;23;20192;-83
2022/05/16 08:33:45;;;;;;;5.60;1.27;;;19.30;40.90;;;;;;6200714;23;20304;-85
2022/05/16 08:41:53;;;;;;;3.72;0.93;;;19.30;40.80;;;;;;6248134;23;20144;-84
2022/05/16 08:44:25;;;;;;;1.92;1.00;;;19.30;40.80;;;;;;6248231;23;20187;-85
2022/05/16 08:47:10;;;;;;;2.50;1.00;;;19.30;40.80;;;;;;6198468;23;20231;-86
2022/05/16 08:49:42;;;;;;;2.83;1.13;;;19.40;40.90;;;;;;6246774;23;20522;-84
2022/05/16 08:52:20;;;;;;;4.30;1.00;;;19.30;41.00;;;;;;6247098;23;20196;-84
2022/05/16 08:54:54;;;;;;;2.95;1.00;;;19.30;40.70;;;;;;6245729;22;20144;-84
2022/05/16 08:57:30;;;;;;;4.88;1.00;;;19.30;41.00;;;;;;6145734;23;20183;-84
2022/05/16 09:00:04;;;;;;;1.63;0.90;;;19.30;41.10;;;;;;6195677;23;20180;-84
2022/05/16 09:02:31;;;;;;;2.70;1.00;;;19.40;41.10;;;;;;6153451;23;20210;-85
2022/05/16 09:05:19;;;;;;;3.58;1.05;;;19.40;40.90;;;;;;6172395;23;20193;-86
2022/05/16 09:08:01;;;;;;;2.67;0.80;;;19.30;41.00;;;;;;6249932;22;20164;-85
2022/05/16 09:11:00;;;;;;;3.47;0.80;;;19.30;41.10;;;;;;6137112;23;20151;-86
2022/05/16 09:13:43;;;;;;;2.55;1.08;;;19.30;41.00;;;;;;6166087;23;20145;-85
2022/05/16 09:16:23;;;;;;;2.17;0.75;;;19.40;41.20;;;;;;6161582;23;20173;-87
2022/05/16 09:19:09;;;;;;;3.25;0.73;;;19.40;41.00;;;;;;6163548;23;20139;-87
2022/05/16 09:21:58;;;;;;;5.72;1.10;;;19.40;40.70;;;;;;6128218;23;20160;-87
2022/05/16 09:24:28;;;;;;;4.10;0.90;;;19.40;41.00;;;;;;6102376;23;20152;-87
2022/05/16 09:29:59;;;;;;;4.22;0.90;;;19.50;41.10;;;;;;6079414;23;20540;-87
2022/05/16 09:32:32;;;;;;;1.50;0.80;;;19.40;41.20;;;;;;6077955;23;20284;-88
2022/05/16 09:35:04;;;;;;;1.30;0.80;;;19.40;41.10;;;;;;6056784;23;20157;-89
2022/05/16 09:37:35;;;;;;;4.40;1.13;;;19.40;41.10;;;;;;6056463;23;20565;-87
2022/05/16 09:40:01;;;;;;;3.28;1.00;;;19.30;41.00;;;;;;6025242;23;20154;-88
2022/05/16 09:42:34;;;;;;;0.85;0.80;;;19.30;41.10;;;;;;6077005;23;20167;-87
2022/05/16 09:45:13;;;;;;;1.45;0.80;;;19.30;41.00;;;;;;6076957;23;20192;-87
2022/05/16 09:47:45;;;;;;;3.15;1.13;;;19.30;40.90;;;;;;6074410;23;20476;-87
2022/05/16 09:50:20;;;;;;;3.35;0.80;;;19.30;41.00;;;;;;6074273;23;20509;-86
2022/05/16 09:53:10;;;;;;;4.38;0.90;;;19.30;40.90;;;;;;6077025;23;20168;-87
2022/05/16 09:55:54;;;;;;;3.55;0.85;;;19.40;40.80;;;;;;6090037;23;20234;-87
2022/05/16 09:58:26;;;;;;;2.45;0.82;;;19.40;40.90;;;;;;6090928;23;20580;-87
2022/05/16 10:00:59;;;;;;;4.22;0.85;;;19.30;40.60;;;;;;6138221;23;20156;-88
2022/05/16 10:03:36;;;;;;;2.60;0.82;;;19.30;40.70;;;;;;6111539;23;20197;-88
2022/05/16 10:06:26;;;;;;;3.35;0.70;;;19.40;40.80;;;;;;6168093;23;20178;-87
2022/05/16 10:08:52;;;;;;;1.08;0.75;;;19.40;40.80;;;;;;6118267;23;20178;-88
2022/05/16 10:11:25;;;;;;;3.00;0.85;;;19.30;40.50;;;;;;6224529;23;20192;-88
2022/05/16 10:13:51;;;;;;;1.73;0.70;;;19.40;40.60;;;;;;6174577;23;20150;-87
2022/05/16 10:16:17;;;;;;;2.17;0.80;;;19.40;40.50;;;;;;6223302;23;20233;-88
2022/05/16 10:18:47;;;;;;;2.40;0.82;;;19.40;40.30;;;;;;6194133;23;20138;-87
2022/05/16 10:21:24;;;;;;;2.38;0.88;;;19.40;40.20;;;;;;6217812;23;20154;-86
2022/05/16 10:24:13;;;;;;;1.20;0.82;;;19.40;40.30;;;;;;6146577;23;20173;-88
2022/05/16 10:26:41;;;;;;;1.20;1.00;;;19.40;40.40;;;;;;6175697;23;20150;-86
2022/05/16 10:29:12;;;;;;;3.65;0.68;;;19.40;40.40;;;;;;6221778;23;20634;-86
2022/05/16 10:34:33;;;;;;;1.00;0.80;;;19.30;40.40;;;;;;6219285;23;20138;-87
2022/05/16 10:37:06;;;;;;;0.88;0.80;;;19.30;40.30;;;;;;6194829;23;20245;-88
2022/05/16 10:39:45;;;;;;;1.48;0.80;;;19.40;40.40;;;;;;6168247;23;20150;-88
2022/05/16 10:42:19;;;;;;;3.20;0.88;;;19.30;40.00;;;;;;6176342;23;20158;-88
2022/05/16 10:45:00;;;;;;;0.65;0.60;;;19.40;40.20;;;;;;6229337;23;20549;-88
2022/05/16 10:47:54;;;;;;;4.32;0.70;;;19.40;40.00;;;;;;6202477;23;20146;-89
2022/05/16 10:50:26;;;;;;;1.05;0.75;;;19.40;39.80;;;;;;6177354;23;20157;-88
2022/05/16 10:53:01;;;;;;;2.70;0.82;;;19.40;39.60;;;;;;6167939;23;20447;-88
2022/05/16 10:55:39;;;;;;;1.48;0.60;;;19.40;39.70;;;;;;6222564;23;20138;-88
2022/05/16 10:58:23;;;;;;;1.90;0.70;;;19.40;39.60;;;;;;6170377;23;20312;-87
2022/05/16 11:01:09;;;;;;;0.98;0.70;;;19.40;39.60;;;;;;6223722;23;20489;-87
2022/05/16 11:04:01;;;;;;;1.42;0.55;;;19.40;40.00;;;;;;6236695;23;20197;-88
2022/05/16 11:06:48;;;;;;;1.10;0.80;;;19.40;39.60;;;;;;6232555;23;20153;-89
2022/05/16 11:09:25;;;;;;;0.73;0.73;;;19.50;39.50;;;;;;6229094;23;20438;-89
2022/05/16 11:11:59;;;;;;;2.70;0.70;;;19.40;39.40;;;;;;6250146;23;20256;-88
2022/05/16 11:14:40;;;;;;;1.10;0.60;;;19.30;39.30;;;;;;6223246;23;20129;-88
2022/05/16 11:17:22;;;;;;;1.35;0.80;;;19.40;39.50;;;;;;6229026;23;20141;-88
2022/05/16 11:19:59;;;;;;;0.90;0.75;;;19.30;39.50;;;;;;6252763;23;20221;-90
2022/05/16 11:22:43;;;;;;;2.28;0.80;;;19.40;39.40;;;;;;6202348;23;20226;-89
2022/05/16 11:25:13;;;;;;;1.20;0.60;;;19.40;39.40;;;;;;6202385;23;20141;-89
2022/05/16 11:28:05;;;;;;;0.80;0.80;;;19.30;39.40;;;;;;6204762;23;20194;-88
2022/05/16 11:30:59;;;;;;;0.70;0.55;;;19.30;39.20;;;;;;6113362;23;20660;-90
2022/05/16 11:33:39;;;;;;;0.98;0.68;;;19.30;38.90;;;;;;6078582;23;20220;-88
2022/05/16 11:36:19;;;;;;;1.60;0.60;;;19.30;39.20;;;;;;6052783;23;20239;-88
2022/05/16 11:39:07;;;;;;;2.20;0.70;;;19.30;39.40;;;;;;6082059;23;20206;-88
2022/05/16 11:42:09;;;;;;;2.70;0.80;;;19.30;38.90;;;;;;6065483;23;20149;-88
2022/05/16 11:45:24;;;;;;;1.88;0.90;;;19.30;38.70;;;;;;6047944;23;20644;-88
2022/05/16 11:48:09;;;;;;;0.80;0.60;;;19.30;38.80;;;;;;5964430;24;20166;-88
2022/05/16 11:51:03;;;;;;;0.90;0.63;;;19.30;38.80;;;;;;5946493;24;20197;-87
2022/05/16 11:53:57;;;;;;;3.45;0.80;;;19.30;38.90;;;;;;5911126;24;20586;-87
2022/05/16 12:03:12;;;;;;;1.85;0.70;;;19.20;39.10;;;;;;5874400;24;20153;-90
2022/05/16 12:06:15;;;;;;;1.23;0.70;;;19.30;38.50;;;;;;5878376;24;20170;-89
2022/05/16 12:09:19;;;;;;;1.02;0.60;;;19.30;38.20;;;;;;5893810;24;20162;-87
2022/05/16 12:12:05;;;;;;;0.60;0.60;;;19.30;38.30;;;;;;5880882;24;20196;-86
2022/05/16 12:15:07;;;;;;;0.70;0.52;;;19.30;38.00;;;;;;5835535;24;20191;-86
2022/05/16 12:18:33;;;;;;;1.58;0.65;;;19.30;37.80;;;;;;5960466;24;20156;-86
2022/05/16 12:21:00;;;;;;;0.55;0.55;;;19.40;37.90;;;;;;5984236;24;20480;-87
2022/05/16 12:23:57;;;;;;;0.70;0.50;;;19.30;38.00;;;;;;5960735;24;20152;-86
2022/05/16 12:26:49;;;;;;;0.60;0.60;;;19.40;37.50;;;;;;5961105;24;20159;-86
2022/05/16 12:29:56;;;;;;;0.70;0.70;;;19.40;37.80;;;;;;5933932;24;20163;-86
2022/05/16 12:32:44;;;;;;;1.00;0.68;;;19.30;38.10;;;;;;5962363;24;20306;-87
2022/05/16 12:35:37;;;;;;;1.45;0.73;;;19.30;37.90;;;;;;5937362;24;20159;-85
2022/05/16 12:38:23;;;;;;;0.98;0.68;;;19.30;37.60;;;;;;5959150;24;20611;-85
2022/05/16 12:41:38;;;;;;;0.52;0.52;;;19.30;37.40;;;;;;5957939;24;20159;-85
2022/05/16 12:44:19;;;;;;;0.60;0.52;;;19.30;37.40;;;;;;5961694;24;20159;-85
2022/05/16 12:47:20;;;;;;;1.63;0.70;;;19.30;37.30;;;;;;5964929;24;20194;-85
2022/05/16 12:49:53;;;;;;;0.60;0.60;;;19.30;37.40;;;;;;5950485;23;20268;-87
2022/05/16 12:52:49;;;;;;;0.57;0.52;;;19.30;37.00;;;;;;6026800;23;20367;-88
2022/05/16 12:55:49;;;;;;;0.60;0.60;;;19.30;37.50;;;;;;6048145;23;20233;-87
2022/05/16 12:58:50;;;;;;;0.88;0.57;;;19.30;37.30;;;;;;6049718;23;20181;-87
2022/05/16 13:01:39;;;;;;;2.13;0.60;;;19.20;37.50;;;;;;6044836;23;20510;-86
2022/05/16 13:04:29;;;;;;;0.50;0.50;;;19.20;37.50;;;;;;6120482;23;20307;-86
2022/05/16 13:07:02;;;;;;;1.10;0.73;;;19.20;37.30;;;;;;6161761;23;20163;-87
2022/05/16 13:09:46;;;;;;;0.50;0.50;;;19.20;37.30;;;;;;6162282;23;20147;-89
2022/05/16 13:12:32;;;;;;;0.90;0.70;;;19.30;37.00;;;;;;6135867;23;20171;-89
2022/05/16 13:15:26;;;;;;;0.98;0.60;;;19.40;36.90;;;;;;6172547;23;20132;-88
2022/05/16 13:18:10;;;;;;;0.60;0.60;;;19.30;36.50;;;;;;6167894;23;20139;-88
2022/05/16 13:20:52;;;;;;;1.23;0.77;;;19.30;36.40;;;;;;6165904;23;20139;-88
2022/05/16 13:23:19;;;;;;;0.70;0.65;;;19.40;36.90;;;;;;6145874;23;20140;-89
2022/05/16 13:46:55;;;;;;;1.27;0.60;;;19.30;36.10;;;;;;6226393;22;20200;-88
2022/05/16 13:49:40;;;;;;;0.35;0.35;;;19.40;36.20;;;;;;6124512;23;20225;-90
2022/05/16 13:52:24;;;;;;;0.68;0.60;;;19.40;36.00;;;;;;6091542;23;20230;-88
2022/05/16 13:54:50;;;;;;;0.80;0.75;;;19.30;36.30;;;;;;6068054;23;20156;-88
2022/05/16 13:57:22;;;;;;;0.70;0.60;;;19.30;35.90;;;;;;6089166;23;20686;-88
2022/05/16 14:00:23;;;;;;;1.55;0.57;;;19.30;35.80;;;;;;6088763;23;20163;-88
2022/05/16 14:02:54;;;;;;;0.63;0.50;;;19.30;36.00;;;;;;6111353;23;20151;-87
2022/05/16 14:05:26;;;;;;;0.45;0.40;;;19.40;35.60;;;;;;6087106;23;20242;-86
2022/05/16 14:07:52;;;;;;;1.40;0.60;;;19.30;35.50;;;;;;6112721;23;20231;-87
2022/05/16 14:10:26;;;;;;;1.80;0.68;;;19.30;35.30;;;;;;6091666;23;20155;-87
2022/05/16 14:12:58;;;;;;;1.25;0.50;;;19.30;35.70;;;;;;6095249;23;20207;-87
2022/05/16 14:15:45;;;;;;;1.05;0.40;;;19.30;35.70;;;;;;6121278;23;20151;-87
2022/05/16 14:18:16;;;;;;;1.38;0.60;;;19.30;35.50;;;;;;6098288;23;20147;-86
2022/05/16 14:20:55;;;;;;;0.82;0.50;;;19.30;35.60;;;;;;6175341;23;20154;-86
2022/05/16 14:23:22;;;;;;;0.70;0.50;;;19.30;35.50;;;;;;6203470;23;20149;-86
2022/05/16 14:25:51;;;;;;;0.57;0.50;;;19.30;35.30;;;;;;6225218;23;20142;-87